createdAt,value
2022-08-12T00:00:11.832Z,20.10
2022-08-12T00:02:57.697Z,20.12
2022-08-12T00:06:04.293Z,20.04
2022-08-12T00:08:52.245Z,20.04
2022-08-12T00:11:39.099Z,20.08
2022-08-12T00:14:25.099Z,20.04
2022-08-12T00:17:11.274Z,19.97
2022-08-12T00:19:56.900Z,19.96
2022-08-12T00:22:43.923Z,19.99
2022-08-12T00:26:00.386Z,19.91
2022-08-12T00:28:35.617Z,19.91
2022-08-12T00:31:21.385Z,19.96
2022-08-12T00:34:07.270Z,19.92
2022-08-12T00:36:53.105Z,19.90
2022-08-12T00:39:40.679Z,19.88
2022-08-12T00:42:11.947Z,19.82
2022-08-12T00:44:44.271Z,19.78
2022-08-12T00:47:24.018Z,19.79
2022-08-12T00:49:56.096Z,19.80
2022-08-12T00:52:25.247Z,19.83
2022-08-12T00:54:57.952Z,19.81
2022-08-12T00:57:28.926Z,19.77
2022-08-12T00:59:58.766Z,19.74
2022-08-12T01:02:29.575Z,19.80
2022-08-12T01:05:17.494Z,19.72
2022-08-12T01:08:04.955Z,19.73
2022-08-12T01:10:57.550Z,19.63
2022-08-12T01:13:26.628Z,19.54
2022-08-12T01:15:57.255Z,19.54
2022-08-12T01:18:29.137Z,19.54
2022-08-12T01:21:11.915Z,19.50
2022-08-12T01:23:50.256Z,19.50
2022-08-12T01:26:23.424Z,19.42
2022-08-12T01:28:57.059Z,19.34
2022-08-12T01:31:29.321Z,19.29
2022-08-12T01:34:04.245Z,19.24
2022-08-12T01:36:41.163Z,19.23
2022-08-12T01:39:09.754Z,19.22
2022-08-12T01:41:45.220Z,19.21
2022-08-12T01:44:21.829Z,19.21
2022-08-12T01:46:58.627Z,19.18
2022-08-12T01:49:45.082Z,19.15
2022-08-12T01:52:36.020Z,19.14
2022-08-12T01:55:07.044Z,19.15
2022-08-12T01:57:58.770Z,19.15
2022-08-12T02:00:55.429Z,19.14
2022-08-12T02:03:59.821Z,19.14
2022-08-12T02:06:51.032Z,19.16
2022-08-12T02:09:47.543Z,19.15
2022-08-12T02:12:27.730Z,19.12
2022-08-12T02:15:13.170Z,19.06
2022-08-12T02:17:57.056Z,19.00
2022-08-12T02:20:51.236Z,18.98
2022-08-12T02:23:25.560Z,18.92
2022-08-12T02:25:57.039Z,18.93
2022-08-12T02:28:26.080Z,18.94
2022-08-12T02:30:56.738Z,18.88
2022-08-12T02:33:25.847Z,18.86
2022-08-12T02:35:55.540Z,18.84
2022-08-12T02:38:27.069Z,18.83
2022-08-12T02:40:56.994Z,18.76
2022-08-12T02:43:37.939Z,18.77
2022-08-12T02:46:14.071Z,18.74
2022-08-12T02:48:49.059Z,18.72
2022-08-12T02:51:20.554Z,18.69
2022-08-12T02:54:04.994Z,18.66
2022-08-12T02:56:40.865Z,18.61
2022-08-12T02:59:12.156Z,18.58
2022-08-12T03:01:48.570Z,18.57
2022-08-12T03:04:26.902Z,18.53
2022-08-12T03:07:10.588Z,18.52
2022-08-12T03:10:03.411Z,18.51
2022-08-12T03:12:43.638Z,18.49
2022-08-12T03:15:17.698Z,18.49
2022-08-12T03:18:24.741Z,18.49
2022-08-12T03:20:45.978Z,18.46
2022-08-12T03:23:21.551Z,18.42
2022-08-12T03:25:58.964Z,18.42
2022-08-12T03:28:44.844Z,18.40
2022-08-12T03:31:13.253Z,18.37
2022-08-12T03:33:48.186Z,18.39
2022-08-12T03:36:32.086Z,18.33
2022-08-12T03:42:06.198Z,18.32
2022-08-12T03:44:58.828Z,18.30
2022-08-12T03:47:52.134Z,18.28
2022-08-12T03:50:39.369Z,18.29
2022-08-12T03:53:27.092Z,18.29
2022-08-12T03:56:13.328Z,18.28
2022-08-12T03:59:04.196Z,18.27
2022-08-12T04:01:33.477Z,18.32
2022-08-12T04:04:10.625Z,18.27
2022-08-12T04:06:44.940Z,18.27
2022-08-12T04:09:15.846Z,18.32
2022-08-12T04:12:03.527Z,18.35
2022-08-12T04:14:34.950Z,18.31
2022-08-12T04:17:04.762Z,18.32
2022-08-12T04:19:32.924Z,18.31
2022-08-12T04:22:03.470Z,18.28
2022-08-12T04:24:34.968Z,18.28
2022-08-12T04:27:06.310Z,18.32
2022-08-12T04:30:31.011Z,18.40
2022-08-12T04:32:24.024Z,18.35
2022-08-12T04:34:52.756Z,18.36
2022-08-12T04:37:20.952Z,18.38
2022-08-12T04:39:50.041Z,18.49
2022-08-12T04:42:18.634Z,18.58
2022-08-12T04:44:48.479Z,18.66
2022-08-12T04:47:18.030Z,18.68
2022-08-12T04:49:48.171Z,18.78
2022-08-12T04:52:16.892Z,18.79
2022-08-12T04:54:45.794Z,18.87
2022-08-12T04:57:13.963Z,18.98
2022-08-12T04:59:48.503Z,18.99
2022-08-12T05:02:22.084Z,19.06
2022-08-12T05:04:52.765Z,19.17
2022-08-12T05:07:24.254Z,19.11
2022-08-12T05:10:00.650Z,19.16
2022-08-12T05:12:36.632Z,19.18
2022-08-12T05:15:19.098Z,19.10
2022-08-12T05:18:00.102Z,19.11
2022-08-12T05:20:30.979Z,19.18
2022-08-12T05:23:12.934Z,19.26
2022-08-12T05:25:43.388Z,19.35
2022-08-12T05:28:13.151Z,19.37
2022-08-12T05:30:43.629Z,19.35
2022-08-12T05:33:33.231Z,19.39
2022-08-12T05:36:01.353Z,19.41
2022-08-12T05:38:46.836Z,19.43
2022-08-12T05:41:20.562Z,19.52
2022-08-12T05:43:51.117Z,19.60
2022-08-12T05:46:20.093Z,19.64
2022-08-12T05:48:51.272Z,19.66
2022-08-12T05:51:19.487Z,19.75
2022-08-12T05:53:48.382Z,19.74
2022-08-12T05:56:24.693Z,19.84
2022-08-12T05:58:54.607Z,19.86
2022-08-12T06:02:11.807Z,19.85
2022-08-12T06:04:14.786Z,19.97
2022-08-12T06:06:43.299Z,20.03
2022-08-12T06:09:12.263Z,20.04
2022-08-12T06:11:53.984Z,20.06
2022-08-12T06:14:31.760Z,20.15
2022-08-12T06:16:59.979Z,20.29
2022-08-12T06:20:27.000Z,20.44
2022-08-12T06:22:17.933Z,20.51
2022-08-12T06:24:46.605Z,20.62
2022-08-12T06:27:19.213Z,20.75
2022-08-12T06:30:08.454Z,20.85
2022-08-12T06:32:40.175Z,20.84
2022-08-12T06:35:26.915Z,20.85
2022-08-12T06:38:06.185Z,20.98
2022-08-12T06:40:52.007Z,21.07
2022-08-12T06:43:21.351Z,20.97
2022-08-12T06:45:49.554Z,21.01
2022-08-12T06:48:17.773Z,21.07
2022-08-12T06:50:49.286Z,20.99
2022-08-12T06:53:17.425Z,21.06
2022-08-12T06:55:58.528Z,21.15
2022-08-12T06:58:27.043Z,21.25
2022-08-12T07:03:27.888Z,21.40
2022-08-12T07:06:00.863Z,21.48
2022-08-12T07:08:30.010Z,21.56
2022-08-12T07:11:00.320Z,21.72
2022-08-12T07:13:36.846Z,21.91
2022-08-12T07:16:26.808Z,22.04
2022-08-12T07:18:58.179Z,22.09
2022-08-12T07:22:00.354Z,22.20
2022-08-12T07:24:19.097Z,22.21
2022-08-12T07:26:47.217Z,22.30
2022-08-12T07:29:16.493Z,22.43
2022-08-12T07:31:44.700Z,22.55
2022-08-12T07:34:12.833Z,22.65
2022-08-12T07:36:42.394Z,22.67
2022-08-12T07:39:10.796Z,22.63
2022-08-12T07:41:39.100Z,22.69
2022-08-12T07:44:09.388Z,22.80
2022-08-12T07:46:40.432Z,22.91
2022-08-12T07:49:11.185Z,22.87
2022-08-12T07:51:40.130Z,22.95
2022-08-12T07:54:12.374Z,22.90
2022-08-12T07:56:43.290Z,22.89
2022-08-12T07:59:11.704Z,22.77
2022-08-12T08:01:41.235Z,22.93
2022-08-12T08:04:27.069Z,23.12
2022-08-12T08:06:55.642Z,23.32
2022-08-12T08:09:25.505Z,23.29
2022-08-12T08:12:19.142Z,23.45
2022-08-12T08:14:50.197Z,23.52
2022-08-12T08:17:18.850Z,23.57
2022-08-12T08:20:03.750Z,23.59
2022-08-12T08:22:41.984Z,23.56
2022-08-12T08:25:35.750Z,23.71
2022-08-12T08:28:07.724Z,23.91
2022-08-12T08:30:38.332Z,23.89
2022-08-12T08:33:23.031Z,23.90
2022-08-12T08:35:54.418Z,24.10
2022-08-12T08:38:31.772Z,24.10
2022-08-12T08:42:16.294Z,24.21
2022-08-12T08:44:11.089Z,24.32
2022-08-12T08:46:39.406Z,24.39
2022-08-12T08:49:08.182Z,24.09
2022-08-12T08:51:36.586Z,24.19
2022-08-12T08:54:06.875Z,24.38
2022-08-12T08:56:43.940Z,24.53
2022-08-12T08:59:12.523Z,24.51
2022-08-12T09:01:40.759Z,24.67
2022-08-12T09:05:09.071Z,24.48
2022-08-12T09:07:14.963Z,24.57
2022-08-12T09:10:02.208Z,24.67
2022-08-12T09:13:02.610Z,24.85
2022-08-12T09:15:36.428Z,24.71
2022-08-12T09:20:55.101Z,25.16
2022-08-12T09:26:11.666Z,25.24
2022-08-12T09:28:41.961Z,25.43
2022-08-12T09:31:54.165Z,25.62
2022-08-12T09:34:25.445Z,25.28
2022-08-12T09:37:01.077Z,25.49
2022-08-12T09:40:00.827Z,25.70
2022-08-12T09:42:43.434Z,25.93
2022-08-12T09:46:05.304Z,25.76
2022-08-12T09:48:20.023Z,26.04
2022-08-12T09:50:52.030Z,26.11
2022-08-12T09:53:35.854Z,25.95
2022-08-12T09:57:00.421Z,26.25
2022-08-12T09:59:00.169Z,26.43
2022-08-12T10:01:35.572Z,26.44
2022-08-12T10:04:20.761Z,26.39
2022-08-12T10:06:54.834Z,26.46
2022-08-12T10:09:56.835Z,26.19
2022-08-12T10:12:33.059Z,26.02
2022-08-12T10:15:02.272Z,25.96
2022-08-12T10:17:32.049Z,26.16
2022-08-12T10:20:01.713Z,26.51
2022-08-12T10:22:40.458Z,26.84
2022-08-12T10:26:18.346Z,26.93
2022-08-12T10:28:33.278Z,27.52
2022-08-12T10:31:05.233Z,27.80
2022-08-12T10:33:55.040Z,27.78
2022-08-12T10:36:39.864Z,27.66
2022-08-12T10:40:01.309Z,27.71
2022-08-12T10:42:29.012Z,27.56
2022-08-12T10:45:01.022Z,27.05
2022-08-12T10:48:19.871Z,27.30
2022-08-12T10:50:33.901Z,27.43
2022-08-12T10:53:11.600Z,27.33
2022-08-12T10:55:55.507Z,27.47
2022-08-12T10:58:30.756Z,27.48
2022-08-12T11:01:49.850Z,27.48
2022-08-12T11:04:35.806Z,27.49
2022-08-12T11:07:06.338Z,27.50
2022-08-12T11:09:54.314Z,27.80
2022-08-12T11:12:55.451Z,28.12
2022-08-12T11:15:19.011Z,28.16
2022-08-12T11:17:53.990Z,28.20
2022-08-12T11:20:24.353Z,28.47
2022-08-12T11:22:59.960Z,28.56
2022-08-12T11:25:56.335Z,28.82
2022-08-12T11:28:34.105Z,29.17
2022-08-12T11:31:03.755Z,29.24
2022-08-12T11:34:06.569Z,29.23
2022-08-12T11:36:21.925Z,29.44
2022-08-12T11:38:52.331Z,29.50
2022-08-12T11:41:31.477Z,29.75
2022-08-12T11:44:36.084Z,30.22
2022-08-12T11:46:54.086Z,30.61
2022-08-12T11:49:31.975Z,30.17
2022-08-12T11:52:27.940Z,30.09
2022-08-12T11:54:54.916Z,30.11
2022-08-12T11:58:27.936Z,30.54
2022-08-12T12:03:01.019Z,30.31
2022-08-12T12:05:39.513Z,30.22
2022-08-12T12:08:38.546Z,30.14
2022-08-12T12:10:59.672Z,30.57
2022-08-12T12:14:08.298Z,30.62
2022-08-12T12:16:16.076Z,30.40
2022-08-12T12:18:45.390Z,30.61
2022-08-12T12:21:13.548Z,30.55
2022-08-12T12:23:46.965Z,30.63
2022-08-12T12:26:35.691Z,30.79
2022-08-12T12:29:07.830Z,30.29
2022-08-12T12:32:11.945Z,30.66
2022-08-12T12:34:40.362Z,30.94
2022-08-12T12:38:04.617Z,31.09
2022-08-12T12:40:17.036Z,31.31
2022-08-12T12:42:57.796Z,31.70
2022-08-12T12:45:28.647Z,31.81
2022-08-12T12:48:02.761Z,31.85
2022-08-12T12:50:35.321Z,31.92
2022-08-12T12:54:06.637Z,31.68
2022-08-12T12:56:01.874Z,32.04
2022-08-12T12:58:31.387Z,31.40
2022-08-12T13:01:04.692Z,31.62
2022-08-12T13:03:49.114Z,31.90
2022-08-12T13:06:19.097Z,31.31
2022-08-12T13:08:49.378Z,31.26
2022-08-12T13:11:21.194Z,31.38
2022-08-12T13:14:06.760Z,31.39
2022-08-12T13:16:43.786Z,31.07
2022-08-12T13:19:12.258Z,31.14
2022-08-12T13:22:06.357Z,31.13
2022-08-12T13:24:34.457Z,31.17
2022-08-12T13:27:02.714Z,31.72
2022-08-12T13:29:33.574Z,31.23
2022-08-12T13:32:19.506Z,31.34
2022-08-12T13:34:53.442Z,30.59
2022-08-12T13:37:43.985Z,30.78
2022-08-12T13:40:21.269Z,30.85
2022-08-12T13:42:57.980Z,30.86
2022-08-12T13:45:29.026Z,31.42
2022-08-12T13:48:00.388Z,31.96
2022-08-12T13:50:32.875Z,31.71
2022-08-12T13:53:06.111Z,32.08
2022-08-12T13:56:01.329Z,32.34
2022-08-12T13:58:32.985Z,32.87
2022-08-12T14:01:06.448Z,33.01
2022-08-12T14:03:50.455Z,32.66
2022-08-12T14:06:20.404Z,32.36
2022-08-12T14:08:49.794Z,33.03
2022-08-12T14:11:19.412Z,33.60
2022-08-12T14:14:06.218Z,33.16
2022-08-12T14:16:48.323Z,32.49
2022-08-12T14:19:24.490Z,31.87
2022-08-12T14:22:00.949Z,31.46
2022-08-12T14:24:35.592Z,31.30
2022-08-12T14:27:08.853Z,31.25
2022-08-12T14:30:04.803Z,32.03
2022-08-12T14:32:36.047Z,33.03
2022-08-12T14:35:08.994Z,33.70
2022-08-12T14:37:57.662Z,34.06
2022-08-12T14:41:37.103Z,34.30
2022-08-12T14:44:58.878Z,34.64
2022-08-12T14:47:07.547Z,34.40
2022-08-12T14:50:41.537Z,34.61
2022-08-12T14:53:15.412Z,34.44
2022-08-12T14:58:04.580Z,34.84
2022-08-12T15:00:53.418Z,35.07
2022-08-12T15:03:57.006Z,33.83
2022-08-12T15:06:39.798Z,34.67
2022-08-12T15:09:06.987Z,34.72
2022-08-12T15:11:54.943Z,34.36
2022-08-12T15:14:27.413Z,34.17
2022-08-12T15:17:00.086Z,33.50
2022-08-12T15:20:33.220Z,33.58
2022-08-12T15:22:35.939Z,34.62
2022-08-12T15:25:07.482Z,34.81
2022-08-12T15:28:05.449Z,34.71
2022-08-12T15:30:33.970Z,34.64
2022-08-12T15:33:12.391Z,33.60
2022-08-12T15:35:52.103Z,33.28
2022-08-12T15:38:24.851Z,33.78
2022-08-12T15:40:56.478Z,34.65
2022-08-12T15:43:51.658Z,35.66
2022-08-12T15:46:18.690Z,35.53
2022-08-12T15:48:53.768Z,35.34
2022-08-12T15:51:59.324Z,35.05
2022-08-12T15:54:30.639Z,34.75
2022-08-12T15:57:05.620Z,33.87
2022-08-12T16:00:00.444Z,33.35
2022-08-12T16:02:26.656Z,33.69
2022-08-12T16:04:55.704Z,33.88
2022-08-12T16:07:29.941Z,32.89
2022-08-12T16:10:07.008Z,30.95
2022-08-12T16:12:43.140Z,30.60
2022-08-12T16:15:13.180Z,30.71
2022-08-12T16:18:15.621Z,30.83
2022-08-12T16:20:34.970Z,30.24
2022-08-12T16:23:26.689Z,30.15
2022-08-12T16:26:02.718Z,29.70
2022-08-12T16:28:32.962Z,29.20
2022-08-12T16:31:01.828Z,29.43
2022-08-12T16:33:59.696Z,29.32
2022-08-12T16:36:27.813Z,28.76
2022-08-12T16:38:56.026Z,28.53
2022-08-12T16:41:25.705Z,28.29
2022-08-12T16:43:56.569Z,28.14
2022-08-12T16:46:31.967Z,28.04
2022-08-12T16:49:09.350Z,28.16
2022-08-12T16:51:47.023Z,28.03
2022-08-12T16:54:17.065Z,27.95
2022-08-12T16:56:55.388Z,28.03
2022-08-12T16:59:31.100Z,27.80
2022-08-12T17:02:31.668Z,27.75
2022-08-12T17:05:05.186Z,27.75
2022-08-12T17:07:43.284Z,27.74
2022-08-12T17:10:18.535Z,27.75
2022-08-12T17:13:09.922Z,27.74
2022-08-12T17:15:57.097Z,27.69
2022-08-12T17:18:42.902Z,27.58
2022-08-12T17:21:17.488Z,27.60
2022-08-12T17:23:53.357Z,27.61
2022-08-12T17:26:27.970Z,27.59
2022-08-12T17:28:59.279Z,27.54
2022-08-12T17:32:00.300Z,27.50
2022-08-12T17:34:33.378Z,27.58
2022-08-12T17:37:04.990Z,27.55
2022-08-12T17:40:12.384Z,27.62
2022-08-12T17:42:32.675Z,27.56
2022-08-12T17:45:18.230Z,27.46
2022-08-12T17:48:01.390Z,27.45
2022-08-12T17:50:32.320Z,27.36
2022-08-12T17:53:03.598Z,27.35
2022-08-12T17:55:43.177Z,27.36
2022-08-12T17:58:17.486Z,27.28
2022-08-12T18:00:47.465Z,27.28
2022-08-12T18:04:05.146Z,27.20
2022-08-12T18:06:14.137Z,27.17
2022-08-12T18:08:54.311Z,27.11
2022-08-12T18:12:04.643Z,27.09
2022-08-12T18:14:30.661Z,27.07
2022-08-12T18:17:02.422Z,27.05
2022-08-12T18:20:03.688Z,27.05
2022-08-12T18:22:21.766Z,27.05
2022-08-12T18:25:00.876Z,27.11
2022-08-12T18:27:44.427Z,27.13
2022-08-12T18:30:20.424Z,27.11
2022-08-12T18:33:03.957Z,27.06
2022-08-12T18:35:53.129Z,27.06
2022-08-12T18:38:24.444Z,27.02
2022-08-12T18:41:21.452Z,26.87
2022-08-12T18:43:59.377Z,26.75
2022-08-12T18:46:35.789Z,26.67
2022-08-12T18:49:17.980Z,26.67
2022-08-12T18:51:55.086Z,26.55
2022-08-12T18:54:26.797Z,26.47
2022-08-12T18:56:59.343Z,26.46
2022-08-12T19:00:02.301Z,26.40
2022-08-12T19:02:22.385Z,26.32
2022-08-12T19:04:53.893Z,26.25
2022-08-12T19:07:24.837Z,26.26
2022-08-12T19:10:00.038Z,26.20
2022-08-12T19:12:56.873Z,26.10
2022-08-12T19:15:27.414Z,26.07
2022-08-12T19:18:02.866Z,25.99
2022-08-12T19:20:32.883Z,25.91
2022-08-12T19:23:08.025Z,25.87
2022-08-12T19:26:00.387Z,25.76
2022-08-12T19:28:35.523Z,25.72
2022-08-12T19:31:55.290Z,25.66
2022-08-12T19:37:27.273Z,25.56
2022-08-12T19:40:07.913Z,25.51
2022-08-12T19:42:42.754Z,25.45
2022-08-12T19:45:15.743Z,25.33
2022-08-12T19:47:46.752Z,25.37
2022-08-12T19:50:19.930Z,25.31
2022-08-12T19:52:51.279Z,25.30
2022-08-12T19:55:21.956Z,25.22
2022-08-12T19:58:02.636Z,25.19
2022-08-12T20:00:35.307Z,25.12
2022-08-12T20:03:05.379Z,25.04
2022-08-12T20:06:05.803Z,25.03
2022-08-12T20:08:33.195Z,24.99
2022-08-12T20:12:09.875Z,25.03
2022-08-12T20:14:00.421Z,24.93
2022-08-12T20:16:57.152Z,24.89
2022-08-12T20:19:52.717Z,24.79
2022-08-12T20:22:24.495Z,24.73
2022-08-12T20:25:00.879Z,24.68
2022-08-12T20:28:03.197Z,24.67
2022-08-12T20:30:37.620Z,24.71
2022-08-12T20:33:17.585Z,24.61
2022-08-12T20:36:13.288Z,24.50
2022-08-12T20:38:38.385Z,24.43
2022-08-12T20:41:16.295Z,24.36
2022-08-12T20:43:52.143Z,24.38
2022-08-12T20:46:20.854Z,24.37
2022-08-12T20:48:54.434Z,24.36
2022-08-12T20:51:27.572Z,24.27
2022-08-12T20:53:58.731Z,24.17
2022-08-12T20:56:34.494Z,24.12
2022-08-12T20:59:06.003Z,24.04
2022-08-12T21:01:46.609Z,23.99
2022-08-12T21:04:36.993Z,23.94
2022-08-12T21:07:09.371Z,23.94
2022-08-12T21:09:42.723Z,23.92
2022-08-12T21:12:31.117Z,23.86
2022-08-12T21:15:23.235Z,23.83
2022-08-12T21:18:11.717Z,23.78
2022-08-12T21:20:54.744Z,23.73
2022-08-12T21:23:23.684Z,23.66
2022-08-12T21:25:52.669Z,23.67
2022-08-12T21:28:27.426Z,23.76
2022-08-12T21:32:34.846Z,23.83
2022-08-12T21:33:45.864Z,23.90
2022-08-12T21:36:35.531Z,23.91
2022-08-12T21:39:18.740Z,23.83
2022-08-12T21:41:50.237Z,23.71
2022-08-12T21:44:24.025Z,23.66
2022-08-12T21:47:20.150Z,23.57
2022-08-12T21:50:02.425Z,23.46
2022-08-12T21:52:35.774Z,23.42
2022-08-12T21:55:08.474Z,23.40
2022-08-12T21:57:50.450Z,23.35
2022-08-12T22:00:20.828Z,23.29
2022-08-12T22:03:06.179Z,23.24
2022-08-12T22:05:53.430Z,23.19
2022-08-12T22:08:25.423Z,23.18
2022-08-12T22:10:56.372Z,23.19
2022-08-12T22:14:07.746Z,23.20
2022-08-12T22:16:15.403Z,23.22
2022-08-12T22:18:50.189Z,23.24
2022-08-12T22:21:22.132Z,23.20
2022-08-12T22:24:05.091Z,23.20
2022-08-12T22:26:37.446Z,23.12
2022-08-12T22:29:23.069Z,22.98
2022-08-12T22:31:54.624Z,22.97
2022-08-12T22:34:29.253Z,22.91
2022-08-12T22:36:58.323Z,22.83
2022-08-12T22:39:28.025Z,22.84
2022-08-12T22:42:19.990Z,22.88
2022-08-12T22:45:05.553Z,22.89
2022-08-12T22:47:54.166Z,22.94
2022-08-12T22:50:27.622Z,22.95
2022-08-12T22:53:15.068Z,22.97
2022-08-12T22:55:59.618Z,22.99
2022-08-12T22:58:40.140Z,23.00
2022-08-12T23:01:10.819Z,23.03
2022-08-12T23:03:48.087Z,23.01
2022-08-12T23:06:20.069Z,22.99
2022-08-12T23:08:48.908Z,22.90
2022-08-12T23:11:23.322Z,22.85
2022-08-12T23:13:56.042Z,22.76
2022-08-12T23:16:31.918Z,22.72
2022-08-12T23:19:10.806Z,22.68
2022-08-12T23:22:05.526Z,22.69
2022-08-12T23:24:53.862Z,22.64
2022-08-12T23:27:52.132Z,22.61
2022-08-12T23:30:31.299Z,22.55
2022-08-12T23:33:01.452Z,22.49
2022-08-12T23:35:46.022Z,22.43
2022-08-12T23:38:30.368Z,22.39
2022-08-12T23:40:59.998Z,22.33
2022-08-12T23:43:38.929Z,22.32
2022-08-12T23:46:10.610Z,22.30
2022-08-12T23:48:39.982Z,22.27
2022-08-12T23:51:22.300Z,22.26
2022-08-12T23:53:55.008Z,22.24
2022-08-12T23:56:24.782Z,22.26
2022-08-12T23:58:55.344Z,22.25
